createdAt,value
2024-05-09T00:00:47.344Z,10.04
2024-05-09T00:03:35.400Z,10.01
2024-05-09T00:06:03.860Z,10.02
2024-05-09T00:08:32.049Z,9.99
2024-05-09T00:11:00.067Z,9.86
2024-05-09T00:13:28.072Z,9.80
2024-05-09T00:15:55.853Z,9.71
2024-05-09T00:18:23.806Z,9.67
2024-05-09T00:20:52.044Z,9.58
2024-05-09T00:23:20.120Z,9.45
2024-05-09T00:25:47.956Z,9.34
2024-05-09T00:28:15.963Z,9.31
2024-05-09T00:30:43.658Z,9.23
2024-05-09T00:33:12.019Z,9.20
2024-05-09T00:35:41.307Z,9.14
2024-05-09T00:38:10.306Z,9.07
2024-05-09T00:40:43.100Z,9.05
2024-05-09T00:43:13.560Z,9.00
2024-05-09T00:45:43.517Z,8.90
2024-05-09T00:48:15.173Z,8.83
2024-05-09T00:50:46.670Z,8.77
2024-05-09T00:53:16.322Z,8.70
2024-05-09T00:55:44.857Z,8.68
2024-05-09T00:58:16.554Z,8.66
2024-05-09T01:00:44.844Z,8.55
2024-05-09T01:03:14.242Z,8.51
2024-05-09T01:05:44.332Z,8.48
2024-05-09T01:08:13.365Z,8.46
2024-05-09T01:10:44.153Z,8.38
2024-05-09T01:13:13.673Z,8.30
2024-05-09T01:15:42.201Z,8.23
2024-05-09T01:18:12.391Z,8.25
2024-05-09T01:20:44.163Z,8.22
2024-05-09T01:23:15.420Z,8.23
2024-05-09T01:25:45.308Z,8.21
2024-05-09T01:28:13.956Z,8.12
2024-05-09T01:30:41.757Z,8.09
2024-05-09T01:33:11.325Z,8.08
2024-05-09T01:35:41.674Z,8.03
2024-05-09T01:38:14.107Z,8.00
2024-05-09T01:40:43.659Z,7.98
2024-05-09T01:43:12.291Z,7.95
2024-05-09T01:45:41.366Z,7.95
2024-05-09T01:48:10.453Z,7.97
2024-05-09T01:50:42.247Z,7.99
2024-05-09T01:53:13.366Z,7.93
2024-05-09T01:55:42.112Z,7.93
2024-05-09T01:58:10.076Z,7.97
2024-05-09T02:00:42.237Z,7.96
2024-05-09T02:03:16.339Z,7.97
2024-05-09T02:05:48.174Z,7.99
2024-05-09T02:08:21.855Z,7.98
2024-05-09T02:10:50.765Z,7.85
2024-05-09T02:13:18.889Z,7.75
2024-05-09T02:15:46.966Z,7.74
2024-05-09T02:18:15.039Z,7.76
2024-05-09T02:20:43.848Z,7.80
2024-05-09T02:23:12.245Z,7.81
2024-05-09T02:25:41.928Z,7.82
2024-05-09T02:28:09.646Z,7.80
2024-05-09T02:30:40.884Z,7.77
2024-05-09T02:33:12.551Z,7.72
2024-05-09T02:35:43.650Z,7.65
2024-05-09T02:38:12.831Z,7.56
2024-05-09T02:40:41.160Z,7.57
2024-05-09T02:43:12.511Z,7.59
2024-05-09T02:45:41.145Z,7.60
2024-05-09T02:48:12.666Z,7.67
2024-05-09T02:50:41.887Z,7.67
2024-05-09T02:53:14.187Z,7.61
2024-05-09T02:55:42.908Z,7.52
2024-05-09T02:58:11.773Z,7.51
2024-05-09T03:00:42.106Z,7.54
2024-05-09T03:03:14.036Z,7.54
2024-05-09T03:05:44.974Z,7.56
2024-05-09T03:08:13.350Z,7.56
2024-05-09T03:10:41.359Z,7.54
2024-05-09T03:13:12.668Z,7.53
2024-05-09T03:15:41.974Z,7.43
2024-05-09T03:18:10.673Z,7.31
2024-05-09T03:20:39.356Z,7.25
2024-05-09T03:23:09.359Z,7.23
2024-05-09T03:25:38.839Z,7.22
2024-05-09T03:28:07.189Z,7.13
2024-05-09T03:30:40.318Z,7.08
2024-05-09T03:33:12.504Z,7.06
2024-05-09T03:35:42.001Z,7.10
2024-05-09T03:38:10.097Z,7.15
2024-05-09T03:40:45.053Z,7.15
2024-05-09T03:43:15.862Z,7.08
2024-05-09T03:45:44.740Z,7.07
2024-05-09T03:48:13.160Z,7.11
2024-05-09T03:50:41.524Z,7.17
2024-05-09T03:53:11.266Z,7.22
2024-05-09T03:55:39.381Z,7.27
2024-05-09T03:58:12.649Z,7.32
2024-05-09T04:00:42.182Z,7.38
2024-05-09T04:03:12.241Z,7.43
2024-05-09T04:05:42.813Z,7.47
2024-05-09T04:08:11.780Z,7.49
2024-05-09T04:10:40.549Z,7.49
2024-05-09T04:13:09.756Z,7.54
2024-05-09T04:15:37.496Z,7.56
2024-05-09T04:18:05.816Z,7.52
2024-05-09T04:20:38.684Z,7.51
2024-05-09T04:23:13.613Z,7.54
2024-05-09T04:25:45.244Z,7.59
2024-05-09T04:28:14.607Z,7.67
2024-05-09T04:30:43.338Z,7.69
2024-05-09T04:33:13.501Z,7.74
2024-05-09T04:35:43.441Z,7.80
2024-05-09T04:38:13.280Z,7.86
2024-05-09T04:40:41.818Z,7.96
2024-05-09T04:43:18.835Z,8.00
2024-05-09T04:45:47.171Z,8.02
2024-05-09T04:48:16.369Z,8.08
2024-05-09T04:50:44.815Z,8.14
2024-05-09T04:53:16.617Z,8.29
2024-05-09T04:55:44.729Z,8.34
2024-05-09T04:58:12.641Z,8.38
2024-05-09T05:00:41.527Z,8.50
2024-05-09T05:03:14.098Z,8.52
2024-05-09T05:05:45.913Z,8.58
2024-05-09T05:08:16.602Z,8.70
2024-05-09T05:10:46.260Z,8.83
2024-05-09T05:13:21.843Z,8.97
2024-05-09T05:15:58.119Z,9.07
2024-05-09T05:18:27.963Z,9.17
2024-05-09T05:20:57.329Z,9.27
2024-05-09T05:23:25.649Z,9.39
2024-05-09T05:25:54.280Z,9.46
2024-05-09T05:28:23.052Z,9.53
2024-05-09T05:30:50.976Z,9.65
2024-05-09T05:33:19.767Z,9.77
2024-05-09T05:35:48.309Z,9.90
2024-05-09T05:38:16.364Z,9.92
2024-05-09T05:40:44.481Z,10.03
2024-05-09T05:43:18.942Z,10.09
2024-05-09T05:45:47.115Z,10.14
2024-05-09T05:48:17.763Z,10.16
2024-05-09T05:50:46.334Z,10.26
2024-05-09T05:53:14.506Z,10.34
2024-05-09T05:55:42.483Z,10.36
2024-05-09T05:58:11.408Z,10.41
2024-05-09T06:00:41.453Z,10.57
2024-05-09T06:03:11.817Z,10.78
2024-05-09T06:05:40.943Z,10.91
2024-05-09T06:08:09.412Z,11.01
2024-05-09T06:10:39.935Z,11.16
2024-05-09T06:13:12.455Z,11.23
2024-05-09T06:15:41.189Z,11.31
2024-05-09T06:18:10.760Z,11.38
2024-05-09T06:20:41.931Z,11.63
2024-05-09T06:23:11.772Z,11.63
2024-05-09T06:25:40.529Z,11.77
2024-05-09T06:28:08.157Z,11.89
2024-05-09T06:30:40.148Z,11.98
2024-05-09T06:33:12.727Z,12.14
2024-05-09T06:35:43.210Z,12.30
2024-05-09T06:38:13.606Z,12.37
2024-05-09T06:40:43.744Z,12.45
2024-05-09T06:43:17.910Z,12.65
2024-05-09T06:45:48.899Z,12.69
2024-05-09T06:48:21.204Z,12.93
2024-05-09T06:50:50.290Z,13.12
2024-05-09T06:53:22.039Z,13.32
2024-05-09T06:55:50.410Z,13.52
2024-05-09T06:58:18.327Z,13.73
2024-05-09T07:00:46.227Z,13.88
2024-05-09T07:03:17.142Z,14.13
2024-05-09T07:05:48.075Z,14.46
2024-05-09T07:08:18.080Z,14.63
2024-05-09T07:10:46.466Z,14.89
2024-05-09T07:15:33.977Z,15.36
2024-05-09T07:18:08.458Z,15.61
2024-05-09T07:20:36.813Z,15.95
2024-05-09T07:23:05.080Z,16.20
2024-05-09T07:25:32.895Z,16.26
2024-05-09T07:28:00.736Z,16.33
2024-05-09T07:30:33.430Z,16.56
2024-05-09T07:33:03.602Z,16.95
2024-05-09T07:35:32.114Z,17.12
2024-05-09T07:38:00.252Z,17.16
2024-05-09T07:40:34.900Z,17.57
2024-05-09T07:43:06.435Z,18.05
2024-05-09T07:52:32.703Z,18.77
2024-05-09T07:55:56.850Z,19.36
2024-05-09T07:58:27.847Z,19.32
2024-05-09T08:00:56.115Z,19.73
2024-05-09T08:03:24.328Z,20.07
2024-05-09T08:05:52.508Z,20.76
2024-05-09T08:08:20.467Z,20.67
2024-05-09T08:10:48.578Z,20.39
2024-05-09T08:13:16.550Z,20.37
2024-05-09T08:15:44.738Z,20.54
2024-05-09T08:18:12.742Z,21.00
2024-05-09T08:20:42.055Z,21.40
2024-05-09T08:23:11.223Z,21.35
2024-05-09T08:25:39.237Z,21.32
2024-05-09T08:28:08.097Z,21.67
2024-05-09T08:30:37.998Z,21.98
2024-05-09T08:33:07.731Z,21.89
2024-05-09T08:35:36.355Z,21.80
2024-05-09T08:38:06.028Z,22.32
2024-05-09T08:40:36.649Z,21.90
2024-05-09T08:43:11.635Z,22.00
2024-05-09T08:45:45.045Z,22.46
2024-05-09T08:48:15.627Z,22.41
2024-05-09T08:50:45.663Z,22.72
2024-05-09T08:53:16.910Z,22.77
2024-05-09T08:55:46.366Z,22.70
2024-05-09T08:58:20.032Z,22.82
2024-05-09T09:00:49.324Z,22.80
2024-05-09T09:03:19.552Z,22.72
2024-05-09T09:05:57.060Z,22.72
2024-05-09T09:08:26.003Z,22.81
2024-05-09T09:10:58.846Z,22.33
2024-05-09T09:13:27.424Z,22.40
2024-05-09T09:15:58.457Z,22.34
2024-05-09T09:18:27.941Z,22.19
2024-05-09T09:20:56.356Z,21.88
2024-05-09T09:23:27.345Z,21.85
2024-05-09T09:26:01.610Z,21.26
2024-05-09T09:28:30.249Z,21.82
2024-05-09T09:31:05.360Z,21.85
2024-05-09T09:33:36.020Z,21.81
2024-05-09T09:36:06.966Z,21.59
2024-05-09T09:38:37.579Z,21.63
2024-05-09T09:41:08.220Z,21.87
2024-05-09T09:43:36.867Z,22.06
2024-05-09T09:46:08.673Z,22.49
2024-05-09T09:48:41.247Z,22.36
2024-05-09T09:51:10.353Z,22.42
2024-05-09T09:53:38.770Z,22.16
2024-05-09T09:56:10.113Z,21.89
2024-05-09T09:58:38.902Z,21.79
2024-05-09T10:01:06.946Z,22.47
2024-05-09T10:03:35.430Z,22.67
2024-05-09T10:06:04.627Z,22.47
2024-05-09T10:08:33.101Z,22.98
2024-05-09T10:11:04.361Z,23.32
2024-05-09T10:13:34.192Z,23.75
2024-05-09T10:16:09.949Z,23.84
2024-05-09T10:18:39.780Z,23.88
2024-05-09T10:21:20.625Z,23.49
2024-05-09T10:24:03.098Z,23.50
2024-05-09T10:26:33.277Z,23.56
2024-05-09T10:29:10.856Z,23.90
2024-05-09T10:31:42.098Z,23.97
2024-05-09T10:34:23.796Z,23.61
2024-05-09T10:36:55.265Z,23.32
2024-05-09T10:39:25.298Z,23.45
2024-05-09T10:41:53.027Z,23.32
2024-05-09T10:44:21.618Z,23.70
2024-05-09T10:46:50.444Z,23.29
2024-05-09T10:49:18.597Z,23.44
2024-05-09T10:51:47.330Z,23.59
2024-05-09T10:54:15.297Z,22.84
2024-05-09T10:56:43.127Z,22.66
2024-05-09T10:59:12.897Z,21.79
2024-05-09T11:01:41.369Z,21.57
2024-05-09T11:04:09.438Z,21.70
2024-05-09T11:06:38.326Z,21.49
2024-05-09T11:09:06.569Z,21.74
2024-05-09T11:11:34.498Z,21.71
2024-05-09T11:14:12.333Z,21.92
2024-05-09T11:16:40.560Z,22.18
2024-05-09T11:19:13.879Z,22.32
2024-05-09T11:21:42.206Z,22.87
2024-05-09T11:24:11.546Z,22.59
2024-05-09T11:26:40.047Z,22.49
2024-05-09T11:29:07.909Z,22.22
2024-05-09T11:31:48.238Z,22.34
2024-05-09T11:34:16.545Z,22.71
2024-05-09T11:36:44.643Z,22.89
2024-05-09T11:39:14.589Z,23.16
2024-05-09T11:41:42.586Z,23.53
2024-05-09T11:44:10.365Z,23.52
2024-05-09T11:46:38.261Z,23.54
2024-05-09T11:49:06.365Z,23.08
2024-05-09T11:51:34.361Z,22.87
2024-05-09T11:54:02.515Z,23.07
2024-05-09T11:56:30.903Z,23.17
2024-05-09T11:58:58.977Z,23.13
2024-05-09T12:01:27.905Z,23.20
2024-05-09T12:03:56.476Z,22.91
2024-05-09T12:06:24.971Z,23.14
2024-05-09T12:08:53.223Z,23.11
2024-05-09T12:11:22.253Z,22.99
2024-05-09T12:13:49.985Z,23.19
2024-05-09T12:16:18.111Z,23.61
2024-05-09T12:18:47.272Z,23.50
2024-05-09T12:21:17.453Z,23.02
2024-05-09T12:23:45.589Z,22.59
2024-05-09T12:26:13.498Z,22.37
2024-05-09T12:28:42.120Z,21.90
2024-05-09T12:31:10.085Z,21.71
2024-05-09T12:33:38.179Z,21.47
2024-05-09T12:36:06.430Z,21.48
2024-05-09T12:38:34.306Z,21.74
2024-05-09T12:41:02.185Z,21.84
2024-05-09T12:43:30.352Z,22.13
2024-05-09T12:45:58.266Z,22.20
2024-05-09T12:48:26.067Z,22.04
2024-05-09T12:50:55.034Z,21.71
2024-05-09T12:53:23.900Z,21.33
2024-05-09T12:55:56.913Z,21.38
2024-05-09T12:58:28.091Z,21.61
2024-05-09T13:00:56.033Z,21.49
2024-05-09T13:03:24.264Z,21.42
2024-05-09T13:05:52.588Z,21.11
2024-05-09T13:08:21.108Z,20.85
2024-05-09T13:10:50.156Z,20.78
2024-05-09T13:13:18.239Z,20.45
2024-05-09T13:15:46.254Z,20.55
2024-05-09T13:18:14.139Z,20.74
2024-05-09T13:20:42.084Z,21.05
2024-05-09T13:23:10.138Z,21.32
2024-05-09T13:25:38.355Z,21.39
2024-05-09T13:28:07.704Z,21.12
2024-05-09T13:30:40.184Z,20.90
2024-05-09T13:33:11.912Z,20.75
2024-05-09T13:35:46.663Z,20.52
2024-05-09T13:38:21.107Z,20.31
2024-05-09T13:40:49.966Z,20.36
2024-05-09T13:43:19.276Z,20.37
2024-05-09T13:45:47.691Z,20.17
2024-05-09T13:48:15.935Z,20.03
2024-05-09T13:50:44.301Z,19.87
2024-05-09T13:53:12.598Z,19.99
2024-05-09T13:55:41.618Z,19.95
2024-05-09T13:58:10.146Z,19.83
2024-05-09T14:00:46.140Z,19.74
2024-05-09T14:03:19.962Z,19.77
2024-05-09T14:05:51.139Z,19.77
2024-05-09T14:08:22.230Z,19.70
2024-05-09T14:10:51.352Z,19.61
2024-05-09T14:13:20.222Z,19.70
2024-05-09T14:15:48.708Z,19.87
2024-05-09T14:18:17.857Z,19.78
2024-05-09T14:20:46.905Z,19.73
2024-05-09T14:23:17.264Z,19.68
2024-05-09T14:25:49.067Z,19.75
2024-05-09T14:28:21.857Z,19.71
2024-05-09T14:30:50.831Z,19.69
2024-05-09T14:33:25.264Z,19.61
2024-05-09T14:35:53.958Z,19.51
2024-05-09T14:38:24.159Z,19.45
2024-05-09T14:40:52.595Z,19.51
2024-05-09T14:43:20.815Z,19.44
2024-05-09T14:45:48.877Z,19.57
2024-05-09T14:48:19.785Z,19.50
2024-05-09T14:50:48.352Z,19.43
2024-05-09T14:53:16.115Z,19.61
2024-05-09T14:55:44.380Z,19.61
2024-05-09T14:58:13.802Z,19.56
2024-05-09T15:00:46.641Z,19.58
2024-05-09T15:03:19.409Z,19.56
2024-05-09T15:05:48.083Z,19.50
2024-05-09T15:08:18.371Z,19.36
2024-05-09T15:10:49.594Z,19.32
2024-05-09T15:13:19.539Z,19.23
2024-05-09T15:15:48.305Z,19.23
2024-05-09T15:18:17.168Z,19.19
2024-05-09T15:20:45.816Z,19.25
2024-05-09T15:23:14.107Z,19.28
2024-05-09T15:25:44.212Z,19.29
2024-05-09T15:28:12.493Z,19.22
2024-05-09T15:30:45.489Z,19.15
2024-05-09T15:33:15.331Z,19.22
2024-05-09T15:35:46.112Z,19.21
2024-05-09T15:38:15.670Z,19.36
2024-05-09T15:40:44.023Z,19.34
2024-05-09T15:43:12.635Z,19.35
2024-05-09T15:45:44.713Z,19.35
2024-05-09T15:48:13.117Z,19.35
2024-05-09T15:50:42.703Z,19.35
2024-05-09T15:53:13.319Z,19.29
2024-05-09T15:55:42.368Z,19.25
2024-05-09T15:58:11.245Z,19.29
2024-05-09T16:00:43.534Z,19.37
2024-05-09T16:03:14.730Z,19.30
2024-05-09T16:05:45.487Z,19.34
2024-05-09T16:08:15.880Z,19.31
2024-05-09T16:10:47.390Z,19.33
2024-05-09T16:13:17.194Z,19.26
2024-05-09T16:15:45.808Z,19.11
2024-05-09T16:18:14.564Z,19.10
2024-05-09T16:20:44.829Z,19.01
2024-05-09T16:23:14.701Z,18.93
2024-05-09T16:25:45.468Z,18.99
2024-05-09T16:28:13.879Z,18.92
2024-05-09T16:30:42.371Z,18.91
2024-05-09T16:33:11.784Z,18.86
2024-05-09T16:35:40.451Z,18.87
2024-05-09T16:38:08.844Z,18.90
2024-05-09T16:40:40.411Z,18.89
2024-05-09T16:43:11.432Z,18.87
2024-05-09T16:45:41.135Z,18.70
2024-05-09T16:48:09.951Z,18.68
2024-05-09T16:50:38.957Z,18.64
2024-05-09T16:53:07.596Z,18.58
2024-05-09T16:55:36.369Z,18.58
2024-05-09T16:58:08.110Z,18.55
2024-05-09T17:00:41.821Z,18.42
2024-05-09T17:03:14.846Z,18.40
2024-05-09T17:05:46.850Z,18.39
2024-05-09T17:08:18.105Z,18.43
2024-05-09T17:10:48.899Z,18.32
2024-05-09T17:13:18.305Z,18.29
2024-05-09T17:15:47.254Z,18.20
2024-05-09T17:18:15.986Z,18.04
2024-05-09T17:20:44.267Z,18.07
2024-05-09T17:23:13.653Z,18.01
2024-05-09T17:25:43.008Z,17.95
2024-05-09T17:28:12.318Z,17.83
2024-05-09T17:30:42.277Z,17.79
2024-05-09T17:33:12.449Z,17.76
2024-05-09T17:35:41.856Z,17.74
2024-05-09T17:38:10.217Z,17.79
2024-05-09T17:40:39.307Z,17.70
2024-05-09T17:43:09.844Z,17.59
2024-05-09T17:45:40.952Z,17.54
2024-05-09T17:48:11.792Z,17.48
2024-05-09T17:50:41.618Z,17.39
2024-05-09T17:53:10.454Z,17.30
2024-05-09T17:55:39.634Z,17.14
2024-05-09T17:58:07.953Z,17.02
2024-05-09T18:00:39.723Z,16.93
2024-05-09T18:03:11.962Z,16.79
2024-05-09T18:05:43.457Z,16.68
2024-05-09T18:08:13.714Z,16.58
2024-05-09T18:10:42.369Z,16.41
2024-05-09T18:13:11.986Z,16.27
2024-05-09T18:15:40.972Z,16.13
2024-05-09T18:18:10.471Z,15.95
2024-05-09T18:20:43.825Z,15.83
2024-05-09T18:23:16.460Z,15.71
2024-05-09T18:25:46.869Z,15.60
2024-05-09T18:28:16.958Z,15.50
2024-05-09T18:30:46.804Z,15.39
2024-05-09T18:33:15.168Z,15.28
2024-05-09T18:35:44.573Z,15.16
2024-05-09T18:38:12.755Z,15.06
2024-05-09T18:40:42.999Z,14.96
2024-05-09T18:43:13.007Z,14.89
2024-05-09T18:45:41.083Z,14.76
2024-05-09T18:48:12.306Z,14.64
2024-05-09T18:50:41.454Z,14.51
2024-05-09T18:53:12.049Z,14.40
2024-05-09T18:55:44.166Z,14.28
2024-05-09T18:58:12.401Z,14.10
2024-05-09T19:00:44.073Z,13.94
2024-05-09T19:03:15.192Z,13.75
2024-05-09T19:05:45.957Z,13.57
2024-05-09T19:08:15.317Z,13.44
2024-05-09T19:10:46.074Z,13.30
2024-05-09T19:13:15.097Z,13.09
2024-05-09T19:15:43.980Z,12.93
2024-05-09T19:18:14.144Z,12.83
2024-05-09T19:20:43.484Z,12.75
2024-05-09T19:23:11.996Z,12.69
2024-05-09T19:25:40.443Z,12.64
2024-05-09T19:28:08.446Z,12.57
2024-05-09T19:30:40.855Z,12.44
2024-05-09T19:33:14.852Z,12.35
2024-05-09T19:35:43.648Z,12.27
2024-05-09T19:38:12.617Z,12.19
2024-05-09T19:40:41.685Z,12.07
2024-05-09T19:43:09.817Z,12.00
2024-05-09T19:45:37.905Z,11.94
2024-05-09T19:48:06.767Z,11.87
2024-05-09T19:50:41.628Z,11.81
2024-05-09T19:53:13.974Z,11.71
2024-05-09T19:55:42.447Z,11.65
2024-05-09T19:58:11.609Z,11.55
2024-05-09T20:00:42.963Z,11.43
2024-05-09T20:03:15.225Z,11.38
2024-05-09T20:05:46.286Z,11.37
2024-05-09T20:08:15.119Z,11.34
2024-05-09T20:10:43.312Z,11.31
2024-05-09T20:13:11.491Z,11.28
2024-05-09T20:15:39.732Z,11.25
2024-05-09T20:18:07.845Z,11.19
2024-05-09T20:20:39.968Z,11.14
2024-05-09T20:23:12.083Z,11.10
2024-05-09T20:25:40.726Z,11.05
2024-05-09T20:28:08.876Z,11.02
2024-05-09T20:30:37.168Z,10.99
2024-05-09T20:33:07.459Z,10.96
2024-05-09T20:35:37.029Z,10.90
2024-05-09T20:38:05.450Z,10.85
2024-05-09T20:40:36.988Z,10.80
2024-05-09T20:43:10.318Z,10.74
2024-05-09T20:45:40.184Z,10.71
2024-05-09T20:48:09.187Z,10.60
2024-05-09T20:50:40.822Z,10.50
2024-05-09T20:53:12.586Z,10.39
2024-05-09T20:55:42.116Z,10.28
2024-05-09T20:58:10.432Z,10.17
2024-05-09T21:00:42.237Z,10.14
2024-05-09T21:03:15.201Z,10.10
2024-05-09T21:05:44.521Z,10.11
2024-05-09T21:08:13.651Z,10.10
2024-05-09T21:10:43.552Z,10.08
2024-05-09T21:13:11.752Z,10.00
2024-05-09T21:15:39.874Z,10.00
2024-05-09T21:18:08.267Z,9.96
2024-05-09T21:20:37.421Z,9.93
2024-05-09T21:23:05.727Z,9.94
2024-05-09T21:25:33.587Z,9.92
2024-05-09T21:28:01.619Z,9.86
2024-05-09T21:30:38.562Z,9.81
2024-05-09T21:33:14.634Z,9.75
2024-05-09T21:35:44.288Z,9.72
2024-05-09T21:38:15.932Z,9.72
2024-05-09T21:40:44.637Z,9.73
2024-05-09T21:43:13.025Z,9.72
2024-05-09T21:45:40.978Z,9.70
2024-05-09T21:48:09.362Z,9.71
2024-05-09T21:50:40.913Z,9.70
2024-05-09T21:53:12.061Z,9.70
2024-05-09T21:55:41.107Z,9.67
2024-05-09T21:58:09.032Z,9.61
2024-05-09T22:00:39.519Z,9.57
2024-05-09T22:03:08.675Z,9.54
2024-05-09T22:05:42.140Z,9.51
2024-05-09T22:08:10.898Z,9.49
2024-05-09T22:10:39.131Z,9.45
2024-05-09T22:13:07.939Z,9.43
2024-05-09T22:15:38.087Z,9.39
2024-05-09T22:18:08.008Z,9.32
2024-05-09T22:20:39.068Z,9.28
2024-05-09T22:23:08.695Z,9.25
2024-05-09T22:25:38.517Z,9.23
2024-05-09T22:28:07.420Z,9.19
2024-05-09T22:30:38.677Z,9.15
2024-05-09T22:33:09.686Z,9.13
2024-05-09T22:35:40.889Z,9.11
2024-05-09T22:38:09.167Z,9.11
2024-05-09T22:40:45.484Z,9.10
2024-05-09T22:43:18.971Z,9.07
2024-05-09T22:45:47.268Z,9.06
2024-05-09T22:48:15.326Z,9.03
2024-05-09T22:50:43.575Z,9.02
2024-05-09T22:53:11.274Z,9.00
2024-05-09T22:55:39.007Z,8.97
2024-05-09T22:58:07.073Z,8.95
2024-05-09T23:00:36.294Z,8.93
2024-05-09T23:03:04.321Z,8.91
2024-05-09T23:05:32.886Z,8.91
2024-05-09T23:08:02.759Z,8.90
2024-05-09T23:10:36.085Z,8.87
2024-05-09T23:13:07.736Z,8.84
2024-05-09T23:15:37.540Z,8.83
2024-05-09T23:18:06.402Z,8.81
2024-05-09T23:20:38.413Z,8.77
2024-05-09T23:23:10.436Z,8.73
2024-05-09T23:25:43.740Z,8.69
2024-05-09T23:28:13.427Z,8.64
2024-05-09T23:30:42.254Z,8.57
2024-05-09T23:33:12.901Z,8.52
2024-05-09T23:35:44.016Z,8.47
2024-05-09T23:38:12.976Z,8.44
2024-05-09T23:40:42.332Z,8.42
2024-05-09T23:43:12.679Z,8.41
2024-05-09T23:45:42.273Z,8.40
2024-05-09T23:48:10.870Z,8.38
2024-05-09T23:50:40.369Z,8.35
2024-05-09T23:53:10.012Z,8.31
2024-05-09T23:55:39.304Z,8.28
2024-05-09T23:58:08.563Z,8.25
